Terminal Aerodrome Forecast
Issued by NWS

Home | Current Version | Previous Version | Text Only | Print | Product List | Glossary On
Versions: 1 2 3 4 5 6 7 8 9 10 11 12 13 14 15 16 17 18 19 20 21 22
000
FTUS46 KSEW 190530
TAFBLI
TAF
KBLI 190530Z 1906/2006 14010G17KT P6SM BKN070 OVC090
     FM191300 16020G30KT P6SM -RA SCT015 OVC040
     FM191900 16025G35KT 4SM -RA BR SCT008 BKN020 OVC035
     FM200200 17015G25KT 4SM -SHRA BKN015 OVC030=

USA.gov is the U.S. government's official web portal to all federal, state and local government web resources and services.